Time;durP1;ratioP1;P1;durP2;ratioP2;P2;SDS_P1;SDS_P2;PMS_P1;PMS_P2;Temp;Humidity;BMP_temperature;BMP_pressure;BME280_temperature;BME280_humidity;BME280_pressure;Samples;Min_cycle;Max_cycle;Signal;HPM_P1;HPM_P2
2022/01/02 00:03:24;;;;;;;7.33;3.07;;;;;;;5.50;100.00;101381.19;10502357;28;20227;-63
2022/01/02 00:08:30;;;;;;;11.03;2.83;;;;;;;5.50;100.00;101382.06;10543609;28;20306;-62
2022/01/02 00:13:36;;;;;;;8.20;3.40;;;;;;;5.47;100.00;101391.41;10543824;28;20318;-66
2022/01/02 00:18:50;;;;;;;9.00;3.30;;;;;;;5.38;100.00;101391.16;10543651;28;20235;-66
2022/01/02 00:23:59;;;;;;;6.97;2.97;;;;;;;5.28;100.00;101397.72;10543611;28;20211;-68
2022/01/02 00:29:04;;;;;;;7.57;3.47;;;;;;;5.27;100.00;101402.84;10543266;28;20247;-66
2022/01/02 00:34:10;;;;;;;8.30;3.80;;;;;;;5.25;100.00;101389.06;10543820;28;20215;-63
2022/01/02 00:39:13;;;;;;;8.40;3.83;;;;;;;5.34;100.00;101402.19;10546200;28;20226;-68
2022/01/02 00:44:25;;;;;;;8.53;4.20;;;;;;;5.31;100.00;101384.09;10545799;28;20246;-68
2022/01/02 00:49:30;;;;;;;7.27;3.83;;;;;;;5.21;100.00;101375.22;10545483;28;20235;-64
2022/01/02 00:54:38;;;;;;;7.97;2.93;;;;;;;5.27;100.00;101384.84;10545598;28;20592;-63
2022/01/02 00:59:48;;;;;;;8.47;3.33;;;;;;;5.28;100.00;101376.31;10544317;28;20219;-66
2022/01/02 01:04:56;;;;;;;8.57;3.47;;;;;;;5.29;100.00;101370.31;10545004;28;20310;-68
2022/01/02 01:10:02;;;;;;;8.37;3.70;;;;;;;5.30;100.00;101374.63;10544904;28;20229;-65
2022/01/02 01:15:07;;;;;;;7.93;4.27;;;;;;;5.30;100.00;101356.59;10544853;28;20223;-62
2022/01/02 01:20:14;;;;;;;7.70;3.57;;;;;;;5.26;100.00;101357.38;10544471;28;20306;-65
2022/01/02 01:25:18;;;;;;;7.87;3.23;;;;;;;5.25;100.00;101356.47;10544310;28;20233;-67
2022/01/02 01:30:25;;;;;;;8.97;3.77;;;;;;;5.28;100.00;101355.72;10544028;28;20215;-64
2022/01/02 01:35:29;;;;;;;8.47;3.30;;;;;;;5.31;100.00;101345.50;10544199;28;20226;-63
2022/01/02 01:40:41;;;;;;;8.53;3.77;;;;;;;5.27;100.00;101338.50;10543810;28;20219;-68
2022/01/02 01:45:44;;;;;;;7.10;3.27;;;;;;;5.19;100.00;101325.47;10543570;28;20738;-65
2022/01/02 01:50:49;;;;;;;7.83;3.60;;;;;;;5.15;100.00;101308.19;10543451;28;20679;-66
2022/01/02 01:55:55;;;;;;;7.43;3.20;;;;;;;5.13;100.00;101307.28;10543174;28;20229;-67
2022/01/02 02:00:58;;;;;;;6.10;2.73;;;;;;;5.16;100.00;101288.47;10543064;28;20528;-66
2022/01/02 02:06:03;;;;;;;7.30;3.10;;;;;;;5.18;100.00;101297.97;10542894;28;20284;-65
2022/01/02 02:11:06;;;;;;;6.07;2.70;;;;;;;5.06;100.00;101291.63;10542292;28;20530;-63
2022/01/02 02:16:09;;;;;;;9.33;3.40;;;;;;;5.16;100.00;101291.91;10542559;28;20707;-63
2022/01/02 02:21:14;;;;;;;5.77;2.47;;;;;;;5.06;100.00;101282.19;10540489;28;20239;-64
2022/01/02 02:26:18;;;;;;;8.23;3.13;;;;;;;5.03;100.00;101270.97;10539362;28;20707;-65
2022/01/02 02:31:22;;;;;;;6.83;2.47;;;;;;;5.08;100.00;101267.69;10539034;28;20226;-67
2022/01/02 02:36:26;;;;;;;6.73;2.60;;;;;;;5.07;100.00;101263.38;10538940;28;20223;-66
2022/01/02 02:41:34;;;;;;;8.33;2.80;;;;;;;5.03;100.00;101255.53;10539353;28;20237;-64
2022/01/02 02:52:05;;;;;;;7.67;2.80;;;;;;;5.02;100.00;101264.09;10161799;28;10000260;-65
2022/01/02 02:57:12;;;;;;;6.27;2.43;;;;;;;5.06;100.00;101258.16;10496598;28;20215;-66
2022/01/02 03:02:15;;;;;;;6.10;2.70;;;;;;;5.00;100.00;101245.16;10496967;28;20258;-66
2022/01/02 03:07:20;;;;;;;5.83;2.77;;;;;;;5.07;100.00;101242.81;10499843;28;20357;-65
2022/01/02 03:12:23;;;;;;;8.87;3.27;;;;;;;5.15;100.00;101241.28;10499836;28;20212;-64
2022/01/02 03:17:27;;;;;;;9.07;3.17;;;;;;;5.14;100.00;101238.69;10499265;28;20224;-68
2022/01/02 03:22:31;;;;;;;8.90;3.03;;;;;;;5.05;100.00;101223.88;10501142;28;20235;-66
2022/01/02 03:27:34;;;;;;;7.93;3.43;;;;;;;4.96;100.00;101202.19;10506972;28;20227;-64
2022/01/02 03:32:37;;;;;;;7.13;3.50;;;;;;;4.96;100.00;101197.03;10507064;28;20662;-68
2022/01/02 03:37:43;;;;;;;9.03;3.40;;;;;;;4.96;100.00;101186.75;10506458;28;20251;-64
2022/01/02 03:42:46;;;;;;;9.20;3.37;;;;;;;4.95;100.00;101191.03;10506661;28;20230;-64
2022/01/02 03:47:50;;;;;;;7.10;3.77;;;;;;;4.92;100.00;101177.22;10506248;28;20224;-63
2022/01/02 03:52:55;;;;;;;14.07;5.67;;;;;;;4.91;100.00;101162.63;10505877;28;20220;-64
2022/01/02 03:57:58;;;;;;;8.33;3.60;;;;;;;4.92;100.00;101159.22;10506474;28;20224;-62
2022/01/02 04:03:01;;;;;;;8.93;3.70;;;;;;;4.81;100.00;101155.50;10505588;28;20222;-65
2022/01/02 04:08:06;;;;;;;10.70;4.20;;;;;;;4.79;100.00;101146.88;10504470;28;20361;-65
2022/01/02 04:13:09;;;;;;;9.20;3.30;;;;;;;4.77;100.00;101127.97;10505460;28;20238;-62
2022/01/02 04:18:12;;;;;;;9.27;3.97;;;;;;;4.81;100.00;101130.66;10504836;28;20232;-67
2022/01/02 04:23:17;;;;;;;7.73;3.60;;;;;;;4.86;100.00;101117.91;10505469;28;20239;-62
2022/01/02 04:28:20;;;;;;;9.33;4.23;;;;;;;4.87;100.00;101104.25;10505192;28;20231;-64
2022/01/02 04:33:24;;;;;;;9.13;4.57;;;;;;;4.88;100.00;101091.41;10502526;28;20216;-65
2022/01/02 04:38:28;;;;;;;8.67;4.73;;;;;;;4.86;100.00;101058.78;10502061;28;20293;-64
2022/01/02 04:43:32;;;;;;;9.23;4.67;;;;;;;4.77;100.00;101053.41;10504268;28;20671;-63
2022/01/02 04:48:35;;;;;;;9.20;4.27;;;;;;;4.79;100.00;101036.31;10504387;28;20224;-64
2022/01/02 04:53:46;;;;;;;10.67;4.93;;;;;;;4.79;100.00;101029.47;10504132;28;20200;-66
2022/01/02 04:58:50;;;;;;;10.70;4.40;;;;;;;4.78;100.00;101021.72;10504252;28;20226;-66
2022/01/02 05:03:53;;;;;;;10.43;5.10;;;;;;;4.79;100.00;101002.88;10503420;28;20192;-64
2022/01/02 05:08:58;;;;;;;10.53;5.60;;;;;;;4.78;100.00;100999.44;10503015;28;20553;-64
2022/01/02 05:14:01;;;;;;;13.20;5.07;;;;;;;4.85;100.00;101003.88;10502849;28;20199;-66
2022/01/02 05:19:04;;;;;;;18.73;7.50;;;;;;;4.93;100.00;101006.66;10502552;28;20232;-65
2022/01/02 05:24:09;;;;;;;9.50;4.40;;;;;;;4.95;100.00;101011.00;10502532;28;20188;-62
2022/01/02 05:29:13;;;;;;;8.87;4.87;;;;;;;4.95;100.00;100994.69;10502395;28;20306;-65
2022/01/02 05:34:16;;;;;;;10.50;5.63;;;;;;;5.02;100.00;100982.00;10502067;28;20674;-67
2022/01/02 05:39:22;;;;;;;9.57;4.63;;;;;;;5.00;100.00;100965.69;10501753;28;20199;-65
2022/01/02 05:44:25;;;;;;;9.53;5.00;;;;;;;4.94;100.00;100960.38;10501434;28;20188;-65
2022/01/02 05:49:28;;;;;;;20.30;9.80;;;;;;;4.97;100.00;100960.44;10501753;28;20226;-65
2022/01/02 05:54:33;;;;;;;10.80;5.27;;;;;;;4.85;100.00;100933.63;10501582;28;20192;-62
2022/01/02 05:59:39;;;;;;;12.33;5.43;;;;;;;4.80;100.00;100932.66;10501419;28;20196;-63
2022/01/02 06:04:42;;;;;;;11.87;6.00;;;;;;;4.75;100.00;100914.53;10501315;28;20203;-65
2022/01/02 06:09:47;;;;;;;19.87;10.00;;;;;;;4.75;100.00;100927.38;10501153;28;20219;-64
2022/01/02 06:14:51;;;;;;;12.37;6.07;;;;;;;4.77;100.00;100924.84;10501259;28;20204;-66
2022/01/02 06:19:54;;;;;;;13.57;7.17;;;;;;;4.76;100.00;100915.41;10500687;28;20258;-63
2022/01/02 06:24:58;;;;;;;13.83;6.20;;;;;;;4.72;100.00;100911.91;10500637;28;20202;-66
2022/01/02 06:30:01;;;;;;;14.50;6.63;;;;;;;4.72;100.00;100907.63;10500628;28;20216;-66
2022/01/02 06:35:05;;;;;;;16.97;7.33;;;;;;;4.74;100.00;100905.94;10500632;28;20314;-62
2022/01/02 06:40:11;;;;;;;16.63;6.47;;;;;;;4.82;100.00;100894.97;10500593;28;20200;-63
2022/01/02 06:45:14;;;;;;;13.07;6.63;;;;;;;4.81;100.00;100870.09;10500493;28;20195;-67
2022/01/02 06:50:18;;;;;;;15.93;6.63;;;;;;;4.77;100.00;100860.56;10500016;28;20650;-63
2022/01/02 06:55:22;;;;;;;13.77;7.07;;;;;;;4.73;100.00;100854.50;10499164;28;20216;-64
2022/01/02 07:00:26;;;;;;;17.83;7.20;;;;;;;4.72;100.00;100840.81;10505069;28;20224;-65
2022/01/02 07:05:29;;;;;;;57.47;28.23;;;;;;;4.80;100.00;100837.53;10505499;28;20674;-70
2022/01/02 07:10:34;;;;;;;15.23;7.20;;;;;;;4.93;100.00;100853.22;10504497;28;20289;-66
2022/01/02 07:15:37;;;;;;;16.57;8.77;;;;;;;4.90;100.00;100842.84;10504332;28;20308;-66
2022/01/02 07:20:41;;;;;;;16.83;8.17;;;;;;;4.97;100.00;100847.28;10504067;28;20232;-62
2022/01/02 07:25:45;;;;;;;14.73;7.17;;;;;;;5.02;100.00;100839.69;10504412;28;20199;-65
2022/01/02 07:30:49;;;;;;;18.90;8.07;;;;;;;5.05;100.00;100826.88;10503748;28;20681;-67
2022/01/02 07:35:52;;;;;;;14.10;7.53;;;;;;;4.99;100.00;100807.03;10151138;27;10000352;-63
2022/01/02 07:41:08;;;;;;;21.07;8.70;;;;;;;5.02;100.00;100801.94;10503523;28;20222;-67
2022/01/02 07:46:11;;;;;;;18.10;8.77;;;;;;;5.11;100.00;100788.41;10503139;28;20589;-65
2022/01/02 07:51:14;;;;;;;18.33;9.27;;;;;;;5.16;100.00;100768.78;10503156;28;20227;-73
2022/01/02 07:56:19;;;;;;;17.53;7.87;;;;;;;5.21;100.00;100762.00;10502661;28;20216;-66
2022/01/02 08:01:23;;;;;;;16.47;8.30;;;;;;;5.21;100.00;100744.00;10502623;28;20220;-67
2022/01/02 08:06:26;;;;;;;17.47;9.13;;;;;;;5.20;100.00;100734.53;10502641;28;20534;-66
2022/01/02 08:11:31;;;;;;;22.60;10.17;;;;;;;5.21;100.00;100723.44;10501538;28;20676;-63
2022/01/02 08:16:50;;;;;;;20.50;10.00;;;;;;;5.24;100.00;100705.47;10502719;28;20307;-63
2022/01/02 08:21:53;;;;;;;24.93;10.07;;;;;;;5.32;100.00;100715.03;10502019;28;20236;-67
2022/01/02 08:27:00;;;;;;;23.30;9.93;;;;;;;5.42;100.00;100716.03;10502160;28;20231;-67
2022/01/02 08:32:03;;;;;;;25.10;10.27;;;;;;;5.53;100.00;100709.38;10509119;28;20727;-69
2022/01/02 08:37:06;;;;;;;24.17;10.67;;;;;;;5.65;100.00;100714.69;10542920;28;20226;-62
2022/01/02 08:42:12;;;;;;;25.60;10.20;;;;;;;5.62;100.00;100700.09;10542758;28;20211;-69
2022/01/02 08:47:15;;;;;;;24.63;11.30;;;;;;;5.63;100.00;100696.66;10542704;28;20215;-68
2022/01/02 08:52:21;;;;;;;21.63;9.53;;;;;;;5.65;100.00;100694.97;10542375;28;20272;-62
2022/01/02 08:57:26;;;;;;;24.07;9.50;;;;;;;5.73;100.00;100698.53;10502113;28;20578;-66
2022/01/02 09:02:29;;;;;;;25.43;10.57;;;;;;;5.87;100.00;100680.72;10500243;28;20553;-61
2022/01/02 09:07:32;;;;;;;22.50;10.83;;;;;;;5.97;100.00;100671.44;10502858;28;20235;-64
2022/01/02 09:12:37;;;;;;;25.23;12.23;;;;;;;6.09;100.00;100653.56;10500542;28;20239;-64
2022/01/02 09:17:40;;;;;;;24.10;11.03;;;;;;;6.21;100.00;100644.25;10499672;28;20557;-65
2022/01/02 09:22:46;;;;;;;24.03;11.77;;;;;;;6.34;100.00;100627.22;10498327;28;20232;-63
2022/01/02 09:27:51;;;;;;;22.20;11.20;;;;;;;6.46;100.00;100619.59;10499044;28;20688;-68
2022/01/02 09:32:55;;;;;;;21.90;11.97;;;;;;;6.60;100.00;100610.31;10499797;28;20231;-66
2022/01/02 09:37:59;;;;;;;26.40;10.70;;;;;;;6.72;100.00;100593.25;10502686;28;20229;-66
2022/01/02 09:43:04;;;;;;;28.70;13.70;;;;;;;6.84;100.00;100580.44;10540684;28;20213;-62
2022/01/02 09:48:08;;;;;;;27.87;13.33;;;;;;;6.95;100.00;100573.63;10541468;28;20246;-64
2022/01/02 09:53:12;;;;;;;21.50;11.57;;;;;;;7.11;100.00;100553.13;10543405;28;20257;-63
2022/01/02 09:58:16;;;;;;;28.40;12.50;;;;;;;7.23;100.00;100541.16;10542861;28;20580;-65
2022/01/02 10:03:20;;;;;;;30.07;12.07;;;;;;;7.34;100.00;100512.81;10543248;28;20545;-65
2022/01/02 10:08:25;;;;;;;29.17;12.67;;;;;;;7.41;100.00;100491.34;10542820;28;20241;-66
2022/01/02 10:13:42;;;;;;;24.03;12.00;;;;;;;7.50;100.00;100481.06;10542641;28;20211;-67
2022/01/02 10:18:45;;;;;;;27.97;12.60;;;;;;;7.56;100.00;100443.19;10542369;28;20235;-65
2022/01/02 10:23:48;;;;;;;27.83;12.53;;;;;;;7.61;100.00;100420.00;10542606;28;20654;-65
2022/01/02 10:28:52;;;;;;;28.43;13.93;;;;;;;7.71;100.00;100393.31;10540699;28;20216;-66
2022/01/02 10:33:59;;;;;;;27.07;13.70;;;;;;;7.78;100.00;100380.41;10539660;28;20227;-65
2022/01/02 10:39:09;;;;;;;22.63;12.70;;;;;;;7.89;100.00;100386.44;10538790;28;20226;-66
2022/01/02 10:44:23;;;;;;;25.83;12.53;;;;;;;8.00;100.00;100377.00;10538931;28;20681;-67
2022/01/02 10:49:26;;;;;;;28.73;14.50;;;;;;;8.10;100.00;100380.44;10538652;28;20298;-65
2022/01/02 10:54:33;;;;;;;25.53;13.80;;;;;;;8.16;100.00;100368.34;10538689;28;20249;-64
2022/01/02 10:59:40;;;;;;;21.77;12.23;;;;;;;8.27;100.00;100355.47;10539173;28;20216;-66
2022/01/02 11:04:48;;;;;;;25.63;13.73;;;;;;;8.31;100.00;100341.69;10538350;28;20756;-64
2022/01/02 11:09:55;;;;;;;23.70;12.47;;;;;;;8.38;100.00;100317.53;10538229;28;20223;-63
2022/01/02 11:15:06;;;;;;;26.63;13.97;;;;;;;8.45;100.00;100313.22;10520267;28;20213;-65
2022/01/02 11:20:11;;;;;;;25.77;13.23;;;;;;;8.47;100.00;100296.84;10454141;28;20243;-65
2022/01/02 11:25:21;;;;;;;27.50;13.63;;;;;;;8.55;100.00;100279.56;10485157;28;20620;-65
2022/01/02 11:30:40;;;;;;;26.40;12.60;;;;;;;8.69;100.00;100307.97;10468072;28;20216;-64
2022/01/02 11:35:48;;;;;;;23.97;14.60;;;;;;;8.68;100.00;100260.53;10475730;28;20219;-63
2022/01/02 11:40:58;;;;;;;33.10;15.87;;;;;;;8.79;100.00;100257.91;10496018;28;20220;-62
2022/01/02 11:46:17;;;;;;;24.00;14.10;;;;;;;8.89;100.00;100244.03;10497009;28;20296;-68
2022/01/02 11:51:56;;;;;;;24.90;13.70;;;;;;;8.93;100.00;100225.91;10484852;28;20225;-62
2022/01/02 11:57:01;;;;;;;26.40;14.50;;;;;;;9.03;100.00;100222.41;10497455;28;20216;-62
2022/01/02 12:02:08;;;;;;;25.73;15.73;;;;;;;9.07;100.00;100218.94;10502207;28;20311;-66
2022/01/02 12:07:55;;;;;;;24.03;14.63;;;;;;;9.07;100.00;100218.06;10500314;28;20715;-62
2022/01/02 12:13:20;;;;;;;25.20;13.53;;;;;;;9.19;100.00;100203.31;10476068;28;20244;-68
2022/01/02 12:18:28;;;;;;;22.70;12.27;;;;;;;9.25;100.00;100185.13;10187185;27;10000479;-62
2022/01/02 12:23:53;;;;;;;26.03;13.20;;;;;;;9.26;100.00;100175.63;10510248;28;20288;-62
2022/01/02 12:28:58;;;;;;;24.90;13.43;;;;;;;9.30;100.00;100148.84;10501120;28;20573;-61
2022/01/02 12:34:14;;;;;;;24.37;13.07;;;;;;;9.41;100.00;100151.31;10500742;28;20202;-62
2022/01/02 12:39:26;;;;;;;27.47;12.10;;;;;;;9.53;100.00;100133.09;10491757;28;20199;-63
2022/01/02 12:44:31;;;;;;;23.23;14.17;;;;;;;9.58;100.00;100126.16;10500712;28;20192;-61
2022/01/02 12:49:39;;;;;;;22.10;12.47;;;;;;;9.66;100.00;100121.75;10500245;28;20216;-63
2022/01/02 12:54:44;;;;;;;22.57;11.67;;;;;;;9.69;100.00;100122.56;10500374;28;20200;-63
2022/01/02 12:59:49;;;;;;;23.00;11.87;;;;;;;9.71;100.00;100107.88;10472196;28;20643;-63
2022/01/02 13:04:54;;;;;;;19.93;10.80;;;;;;;9.68;100.00;100096.69;10458538;28;20189;-65
2022/01/02 13:09:59;;;;;;;32.80;17.23;;;;;;;9.69;100.00;100081.09;10478787;28;20220;-61
2022/01/02 13:15:06;;;;;;;24.83;11.40;;;;;;;9.73;100.00;100071.56;10499571;28;20188;-64
2022/01/02 13:20:13;;;;;;;20.93;11.63;;;;;;;9.69;100.00;100065.56;10499031;28;20789;-66
2022/01/02 13:25:19;;;;;;;22.50;12.27;;;;;;;9.78;100.00;100065.47;10499410;28;20196;-64
2022/01/02 13:30:24;;;;;;;20.77;10.60;;;;;;;9.74;100.00;100063.78;10499109;28;20196;-65
2022/01/02 13:35:29;;;;;;;62.10;32.30;;;;;;;9.79;100.00;100061.13;10498694;28;20199;-66
2022/01/02 13:40:35;;;;;;;18.67;10.03;;;;;;;9.76;100.00;100058.56;10457351;28;20196;-65
2022/01/02 13:45:43;;;;;;;16.97;9.00;;;;;;;9.77;100.00;100055.94;10457244;28;20299;-63
2022/01/02 13:50:52;;;;;;;17.17;8.30;;;;;;;9.84;100.00;100064.50;10456941;28;20232;-67
2022/01/02 13:56:11;;;;;;;17.70;8.87;;;;;;;9.86;100.00;100052.41;10467765;28;20221;-64
2022/01/02 14:01:20;;;;;;;16.93;9.03;;;;;;;9.87;100.00;100033.41;10482943;28;20198;-65
2022/01/02 14:06:30;;;;;;;15.60;7.70;;;;;;;9.86;100.00;100023.88;10477382;28;20291;-66
2022/01/02 14:11:35;;;;;;;16.43;7.57;;;;;;;9.89;100.00;100026.44;10459446;28;20550;-63
2022/01/02 14:17:02;;;;;;;14.87;7.70;;;;;;;9.91;100.00;100022.09;10501355;28;20207;-62
2022/01/02 14:22:07;;;;;;;16.70;7.60;;;;;;;9.87;100.00;100023.03;10501147;28;20238;-64
2022/01/02 14:27:15;;;;;;;16.47;6.83;;;;;;;10.00;100.00;100009.88;10500926;28;20283;-64
2022/01/02 14:32:18;;;;;;;15.80;7.70;;;;;;;9.94;100.00;100004.75;10461959;28;20278;-67
2022/01/02 14:37:24;;;;;;;16.43;7.67;;;;;;;9.90;100.00;100003.09;10459420;28;20197;-64
2022/01/02 14:42:27;;;;;;;16.77;7.47;;;;;;;9.92;100.00;99990.13;10458788;28;20201;-67
2022/01/02 14:47:33;;;;;;;38.43;17.80;;;;;;;9.89;100.00;99972.84;10458716;28;20593;-65
2022/01/02 14:52:38;;;;;;;13.30;6.40;;;;;;;9.93;100.00;99953.81;10458665;28;20291;-63
2022/01/02 14:57:42;;;;;;;14.50;8.37;;;;;;;9.95;100.00;99958.97;10458469;28;20193;-64
2022/01/02 15:02:45;;;;;;;13.73;7.00;;;;;;;9.91;100.00;99946.91;10458510;28;20211;-65
2022/01/02 15:07:51;;;;;;;10.70;6.40;;;;;;;9.95;100.00;99944.28;10461526;28;20215;-65
2022/01/02 15:12:54;;;;;;;13.47;7.37;;;;;;;10.00;100.00;99931.25;10468786;28;20226;-68
2022/01/02 15:17:57;;;;;;;14.00;6.63;;;;;;;9.92;100.00;99926.16;10482148;28;20640;-64
2022/01/02 15:23:02;;;;;;;14.27;6.67;;;;;;;9.91;100.00;99939.13;10466059;28;20192;-64
2022/01/02 15:28:05;;;;;;;14.30;7.40;;;;;;;9.85;100.00;99923.69;10501976;28;20204;-64
2022/01/02 15:33:09;;;;;;;15.27;7.07;;;;;;;9.77;100.00;99923.78;10506645;28;20231;-66
2022/01/02 15:38:13;;;;;;;13.87;7.60;;;;;;;9.71;100.00;99923.88;10506912;28;20212;-66
2022/01/02 15:43:16;;;;;;;14.83;7.10;;;;;;;9.71;100.00;99913.53;10478006;28;20204;-64
2022/01/02 15:48:21;;;;;;;20.20;8.60;;;;;;;9.72;100.00;99909.16;10465113;28;20288;-64
2022/01/02 15:53:29;;;;;;;15.30;6.80;;;;;;;9.64;100.00;99891.16;10464852;28;20217;-64
2022/01/02 15:58:32;;;;;;;12.70;7.00;;;;;;;9.60;100.00;99894.66;10464617;28;20213;-66
2022/01/02 16:03:36;;;;;;;12.50;6.37;;;;;;;9.69;100.00;99889.38;10464421;28;20206;-64
2022/01/02 16:08:41;;;;;;;12.83;5.93;;;;;;;9.71;100.00;99889.34;10464155;28;20193;-65
2022/01/02 16:13:45;;;;;;;14.20;5.67;;;;;;;9.76;100.00;99880.63;10464002;28;20221;-67
2022/01/02 16:18:48;;;;;;;13.97;6.93;;;;;;;9.60;100.00;99871.34;10463541;28;20240;-62
2022/01/02 16:24:15;;;;;;;13.47;7.00;;;;;;;9.56;100.00;99866.25;10463388;28;20203;-65
2022/01/02 16:29:25;;;;;;;12.97;7.10;;;;;;;9.55;100.00;99859.31;10463394;28;20650;-68
2022/01/02 16:34:30;;;;;;;17.23;7.20;;;;;;;9.52;100.00;99843.84;10463021;28;20228;-64
2022/01/02 16:39:34;;;;;;;12.30;6.80;;;;;;;9.59;100.00;99851.50;10463011;28;20195;-65
2022/01/02 16:44:38;;;;;;;13.33;6.77;;;;;;;9.51;100.00;99830.03;10463086;28;20269;-65
2022/01/02 16:49:46;;;;;;;18.70;7.20;;;;;;;9.58;100.00;99826.47;10463344;28;20270;-65
2022/01/02 16:54:51;;;;;;;15.83;7.63;;;;;;;9.52;100.00;99817.94;10494421;28;20529;-63
2022/01/02 16:59:57;;;;;;;12.87;6.30;;;;;;;9.61;100.00;99810.03;10462332;28;20189;-63
2022/01/02 17:05:00;;;;;;;14.27;6.77;;;;;;;9.61;100.00;99794.50;10493784;28;20294;-64
2022/01/02 17:10:06;;;;;;;13.77;7.30;;;;;;;9.54;100.00;99792.88;10503181;28;20195;-65
2022/01/02 17:15:12;;;;;;;14.10;6.97;;;;;;;9.55;100.00;99794.56;10501015;28;20196;-66
2022/01/02 17:20:28;;;;;;;15.77;7.03;;;;;;;9.68;100.00;99783.16;10485945;28;20572;-62
2022/01/02 17:25:33;;;;;;;11.70;6.90;;;;;;;9.66;100.00;99788.38;10475397;28;20290;-63
2022/01/02 17:30:37;;;;;;;12.50;6.47;;;;;;;9.70;100.00;99774.47;10479842;28;20216;-62
2022/01/02 17:35:41;;;;;;;13.33;5.97;;;;;;;9.70;100.00;99769.28;10495342;28;20280;-61
2022/01/02 17:40:45;;;;;;;14.70;6.63;;;;;;;9.74;100.00;99754.53;10485198;28;20580;-64
2022/01/02 17:45:48;;;;;;;11.13;5.97;;;;;;;9.66;100.00;99752.09;10480198;28;20220;-62
2022/01/02 17:50:52;;;;;;;13.60;8.00;;;;;;;9.69;100.00;99733.03;10477258;28;20272;-64
2022/01/02 17:55:56;;;;;;;13.90;6.57;;;;;;;9.58;100.00;99719.41;10483113;28;20357;-64
2022/01/02 18:01:00;;;;;;;13.40;6.50;;;;;;;9.59;100.00;99692.63;10500670;28;20600;-63
2022/01/02 18:06:07;;;;;;;14.60;6.13;;;;;;;9.37;100.00;99699.03;10475562;28;20216;-61
2022/01/02 18:11:12;;;;;;;35.20;18.20;;;;;;;9.32;100.00;99709.44;10467444;28;20254;-66
2022/01/02 18:16:15;;;;;;;14.73;7.37;;;;;;;9.32;100.00;99702.53;10489570;28;20221;-63
2022/01/02 18:21:19;;;;;;;13.47;6.90;;;;;;;9.34;100.00;99699.94;10487210;28;20228;-67
2022/01/02 18:26:25;;;;;;;17.67;7.10;;;;;;;9.23;100.00;99681.13;10494075;28;20537;-64
2022/01/02 18:31:28;;;;;;;15.03;6.77;;;;;;;9.19;100.00;99684.63;10483137;28;20616;-67
2022/01/02 18:36:31;;;;;;;12.27;5.97;;;;;;;9.15;100.00;99689.00;10458824;28;20557;-63
2022/01/02 18:41:37;;;;;;;14.53;6.17;;;;;;;9.21;100.00;99675.94;10459064;28;20240;-63
2022/01/02 18:46:40;;;;;;;28.23;14.37;;;;;;;9.10;100.00;99651.97;10487238;28;20453;-64
2022/01/02 18:51:45;;;;;;;16.07;6.20;;;;;;;8.99;100.00;99602.09;10500426;28;20227;-64
2022/01/02 18:56:50;;;;;;;12.93;6.10;;;;;;;9.02;100.00;99608.97;10508172;28;20588;-62
2022/01/02 19:01:53;;;;;;;14.73;6.33;;;;;;;9.03;100.00;99621.03;10506204;28;20219;-63
2022/01/02 19:06:57;;;;;;;13.80;7.13;;;;;;;8.97;100.00;99614.22;10497615;28;20220;-65
2022/01/02 19:12:02;;;;;;;16.40;6.53;;;;;;;8.98;100.00;99589.19;10475973;28;20300;-64
2022/01/02 19:17:05;;;;;;;13.77;6.77;;;;;;;8.96;100.00;99567.66;10466155;28;20209;-64
2022/01/02 19:22:08;;;;;;;18.97;6.80;;;;;;;8.92;100.00;99542.72;10488631;28;20555;-64
2022/01/02 19:27:13;;;;;;;14.07;6.27;;;;;;;8.91;100.00;99541.88;10485973;28;20242;-65
2022/01/02 19:32:16;;;;;;;11.73;6.83;;;;;;;8.96;100.00;99542.66;10487764;28;20701;-63
2022/01/02 19:37:20;;;;;;;11.97;6.70;;;;;;;8.94;100.00;99551.28;10489386;28;20661;-65
2022/01/02 19:42:24;;;;;;;13.20;7.13;;;;;;;8.98;100.00;99560.72;10474716;28;20221;-64
2022/01/02 19:47:27;;;;;;;15.40;7.73;;;;;;;8.95;100.00;99551.31;10465255;28;20235;-64
2022/01/02 19:52:31;;;;;;;19.33;8.00;;;;;;;8.92;100.00;99543.56;10464444;28;20240;-64
2022/01/02 19:57:35;;;;;;;14.40;7.70;;;;;;;8.93;100.00;99523.72;10497058;28;20559;-64
2022/01/02 20:02:39;;;;;;;16.33;8.03;;;;;;;8.94;100.00;99504.72;10467508;28;20216;-60
2022/01/02 20:07:43;;;;;;;13.33;7.53;;;;;;;8.99;100.00;99585.75;10496164;28;20683;-64
2022/01/02 20:12:48;;;;;;;14.63;7.67;;;;;;;9.01;100.00;99514.94;10476809;28;20220;-63
2022/01/02 20:17:52;;;;;;;14.57;7.77;;;;;;;8.98;100.00;99503.78;10463934;28;20240;-64
2022/01/02 20:22:56;;;;;;;40.40;19.37;;;;;;;8.97;100.00;99497.75;10494852;28;20199;-63
2022/01/02 20:28:03;;;;;;;18.40;8.73;;;;;;;8.93;100.00;99484.91;10504601;28;20208;-62
2022/01/02 20:33:06;;;;;;;17.80;9.03;;;;;;;8.89;100.00;99468.59;10474882;28;20220;-63
2022/01/02 20:38:10;;;;;;;14.33;8.27;;;;;;;8.91;100.00;99484.09;10503873;28;20203;-64
2022/01/02 20:43:15;;;;;;;16.80;8.83;;;;;;;8.93;100.00;99480.59;10504311;28;20196;-64
2022/01/02 20:48:18;;;;;;;15.40;7.30;;;;;;;8.91;100.00;99479.75;10496359;28;20200;-63
2022/01/02 20:53:23;;;;;;;17.20;7.90;;;;;;;9.06;100.00;99470.88;10503835;28;20234;-64
2022/01/02 20:58:27;;;;;;;18.67;7.60;;;;;;;9.06;100.00;99463.13;10499282;28;20202;-65
2022/01/02 21:03:31;;;;;;;13.27;7.50;;;;;;;9.08;100.00;99444.06;10462164;28;20211;-61
2022/01/02 21:08:36;;;;;;;15.13;7.20;;;;;;;9.17;100.00;99440.47;10466666;28;20213;-61
2022/01/02 21:13:41;;;;;;;13.30;5.80;;;;;;;9.17;100.00;99415.44;10488994;28;20242;-67
2022/01/02 21:18:44;;;;;;;12.53;6.73;;;;;;;9.27;100.00;99422.13;10473643;28;20669;-64
2022/01/02 21:23:48;;;;;;;16.03;7.17;;;;;;;9.25;100.00;99413.53;10481034;28;20217;-67
2022/01/02 21:28:53;;;;;;;14.10;5.70;;;;;;;9.24;100.00;99400.63;10461227;28;20217;-64
2022/01/02 21:33:56;;;;;;;12.47;5.63;;;;;;;9.33;100.00;99385.78;10491573;28;20239;-64
2022/01/02 21:39:00;;;;;;;15.03;7.40;;;;;;;9.37;100.00;99375.34;10465711;28;20220;-66
2022/01/02 21:44:05;;;;;;;15.60;7.90;;;;;;;9.31;100.00;99364.25;10460293;28;20304;-66
2022/01/02 21:49:08;;;;;;;12.30;5.33;;;;;;;9.38;100.00;99379.63;10458146;28;20270;-65
2022/01/02 21:54:12;;;;;;;13.40;5.57;;;;;;;9.32;100.00;99360.75;10457119;28;20536;-64
2022/01/02 21:59:16;;;;;;;13.47;5.10;;;;;;;9.30;100.00;99361.69;10456793;28;20310;-64
2022/01/02 22:04:21;;;;;;;13.17;6.40;;;;;;;9.37;100.00;99367.56;10456655;28;20231;-63
2022/01/02 22:09:28;;;;;;;12.23;5.67;;;;;;;9.52;100.00;99360.34;10161392;27;9999920;-65
2022/01/02 22:14:33;;;;;;;11.30;5.30;;;;;;;9.64;100.00;99356.59;10539400;28;20223;-61
2022/01/02 22:19:37;;;;;;;14.37;5.10;;;;;;;9.75;100.00;99371.00;10539529;28;20224;-66
2022/01/02 22:24:42;;;;;;;12.47;5.13;;;;;;;9.78;100.00;99363.19;10539560;28;20744;-62
2022/01/02 22:29:47;;;;;;;14.90;6.23;;;;;;;9.82;100.00;99366.56;10538736;28;20218;-64
2022/01/02 22:34:54;;;;;;;10.63;4.23;;;;;;;9.83;100.00;99386.41;10539275;28;20223;-64
2022/01/02 22:39:58;;;;;;;8.87;4.07;;;;;;;9.94;100.00;99366.28;10538877;28;20226;-64
2022/01/02 22:45:05;;;;;;;11.47;4.53;;;;;;;10.02;100.00;99375.59;10539478;28;20318;-62
2022/01/02 22:50:11;;;;;;;12.97;4.07;;;;;;;9.98;100.00;99366.16;10540049;28;20219;-64
2022/01/02 22:55:17;;;;;;;10.80;4.47;;;;;;;9.96;100.00;99374.84;10538860;28;20255;-64
2022/01/02 23:05:48;;;;;;;9.93;4.50;;;;;;;10.06;100.00;99358.22;10534641;27;20587;-62
2022/01/02 23:10:52;;;;;;;10.63;4.37;;;;;;;10.07;100.00;99353.00;10536992;28;20290;-63
2022/01/02 23:15:55;;;;;;;9.97;3.47;;;;;;;10.05;100.00;99352.16;10536567;28;20649;-64
2022/01/02 23:21:23;;;;;;;9.07;4.00;;;;;;;10.11;100.00;99346.84;10536402;28;20675;-64
2022/01/02 23:26:27;;;;;;;8.13;3.27;;;;;;;10.23;100.00;99335.34;10536235;28;20290;-63